sensor_id;sensor_type;location;lat;lon;timestamp;P1;durP1;ratioP1;P2;durP2;ratioP2
74892;SDS011;63446;56.272;43.922;2023-02-04T00:00:46;25.83;;;8.37;;
74892;SDS011;63446;56.272;43.922;2023-02-04T00:03:14;17.75;;;5.72;;
74892;SDS011;63446;56.272;43.922;2023-02-04T00:05:40;22.95;;;8.18;;
74892;SDS011;63446;56.272;43.922;2023-02-04T00:08:07;25.20;;;7.77;;
74892;SDS011;63446;56.272;43.922;2023-02-04T00:10:34;25.35;;;8.02;;
74892;SDS011;63446;56.272;43.922;2023-02-04T00:13:01;23.58;;;8.10;;
74892;SDS011;63446;56.272;43.922;2023-02-04T00:15:29;25.50;;;8.43;;
74892;SDS011;63446;56.272;43.922;2023-02-04T00:17:56;24.95;;;8.35;;
74892;SDS011;63446;56.272;43.922;2023-02-04T00:20:22;24.47;;;7.73;;
74892;SDS011;63446;56.272;43.922;2023-02-04T00:22:48;24.75;;;7.47;;
74892;SDS011;63446;56.272;43.922;2023-02-04T00:25:15;24.50;;;8.73;;
74892;SDS011;63446;56.272;43.922;2023-02-04T00:27:41;21.60;;;7.40;;
74892;SDS011;63446;56.272;43.922;2023-02-04T00:30:07;22.17;;;7.57;;
74892;SDS011;63446;56.272;43.922;2023-02-04T00:32:34;17.60;;;6.32;;
74892;SDS011;63446;56.272;43.922;2023-02-04T00:35:00;23.35;;;7.22;;
74892;SDS011;63446;56.272;43.922;2023-02-04T00:37:32;22.07;;;7.27;;
74892;SDS011;63446;56.272;43.922;2023-02-04T00:39:58;24.45;;;8.05;;
74892;SDS011;63446;56.272;43.922;2023-02-04T00:42:24;24.35;;;7.40;;
74892;SDS011;63446;56.272;43.922;2023-02-04T00:44:50;19.70;;;6.63;;
74892;SDS011;63446;56.272;43.922;2023-02-04T00:47:16;26.37;;;8.53;;
74892;SDS011;63446;56.272;43.922;2023-02-04T00:49:42;25.33;;;8.07;;
74892;SDS011;63446;56.272;43.922;2023-02-04T00:52:08;25.40;;;7.97;;
74892;SDS011;63446;56.272;43.922;2023-02-04T00:54:34;22.77;;;7.20;;
74892;SDS011;63446;56.272;43.922;2023-02-04T00:57:00;26.05;;;8.48;;
74892;SDS011;63446;56.272;43.922;2023-02-04T00:59:25;22.83;;;7.83;;
74892;SDS011;63446;56.272;43.922;2023-02-04T01:01:51;23.55;;;7.97;;
74892;SDS011;63446;56.272;43.922;2023-02-04T01:04:17;21.87;;;7.30;;
74892;SDS011;63446;56.272;43.922;2023-02-04T01:06:43;22.27;;;8.23;;
74892;SDS011;63446;56.272;43.922;2023-02-04T01:09:09;21.93;;;8.00;;
74892;SDS011;63446;56.272;43.922;2023-02-04T01:11:36;22.55;;;7.55;;
74892;SDS011;63446;56.272;43.922;2023-02-04T01:14:02;19.30;;;7.32;;
74892;SDS011;63446;56.272;43.922;2023-02-04T01:16:27;21.92;;;7.07;;
74892;SDS011;63446;56.272;43.922;2023-02-04T01:18:53;20.87;;;7.80;;
74892;SDS011;63446;56.272;43.922;2023-02-04T01:21:21;24.17;;;8.07;;
74892;SDS011;63446;56.272;43.922;2023-02-04T01:23:47;21.35;;;7.03;;
74892;SDS011;63446;56.272;43.922;2023-02-04T01:26:15;19.15;;;6.45;;
74892;SDS011;63446;56.272;43.922;2023-02-04T01:28:45;24.95;;;7.22;;
74892;SDS011;63446;56.272;43.922;2023-02-04T01:31:10;20.70;;;6.87;;
74892;SDS011;63446;56.272;43.922;2023-02-04T01:33:37;22.20;;;7.07;;
74892;SDS011;63446;56.272;43.922;2023-02-04T01:36:04;19.98;;;7.00;;
74892;SDS011;63446;56.272;43.922;2023-02-04T01:38:30;18.45;;;6.95;;
74892;SDS011;63446;56.272;43.922;2023-02-04T01:40:56;20.33;;;7.47;;
74892;SDS011;63446;56.272;43.922;2023-02-04T01:43:23;24.55;;;7.68;;
74892;SDS011;63446;56.272;43.922;2023-02-04T01:45:49;21.75;;;6.07;;
74892;SDS011;63446;56.272;43.922;2023-02-04T01:48:16;28.15;;;8.52;;
74892;SDS011;63446;56.272;43.922;2023-02-04T01:50:48;23.17;;;7.15;;
74892;SDS011;63446;56.272;43.922;2023-02-04T01:53:17;24.50;;;8.53;;
74892;SDS011;63446;56.272;43.922;2023-02-04T01:55:47;28.52;;;8.02;;
74892;SDS011;63446;56.272;43.922;2023-02-04T01:58:13;22.17;;;8.45;;
74892;SDS011;63446;56.272;43.922;2023-02-04T02:00:40;23.05;;;8.38;;
74892;SDS011;63446;56.272;43.922;2023-02-04T02:03:08;29.75;;;9.15;;
74892;SDS011;63446;56.272;43.922;2023-02-04T02:05:39;23.90;;;7.80;;
74892;SDS011;63446;56.272;43.922;2023-02-04T02:08:08;22.85;;;7.82;;
74892;SDS011;63446;56.272;43.922;2023-02-04T02:10:37;21.40;;;7.40;;
74892;SDS011;63446;56.272;43.922;2023-02-04T02:13:07;24.45;;;8.10;;
74892;SDS011;63446;56.272;43.922;2023-02-04T02:15:37;25.27;;;8.60;;
74892;SDS011;63446;56.272;43.922;2023-02-04T02:18:07;20.70;;;7.10;;
74892;SDS011;63446;56.272;43.922;2023-02-04T02:20:36;21.98;;;7.38;;
74892;SDS011;63446;56.272;43.922;2023-02-04T02:23:10;19.30;;;7.18;;
74892;SDS011;63446;56.272;43.922;2023-02-04T02:25:42;24.67;;;8.02;;
74892;SDS011;63446;56.272;43.922;2023-02-04T02:28:11;24.08;;;7.55;;
74892;SDS011;63446;56.272;43.922;2023-02-04T02:30:39;21.03;;;6.93;;
74892;SDS011;63446;56.272;43.922;2023-02-04T02:33:10;20.35;;;7.90;;
74892;SDS011;63446;56.272;43.922;2023-02-04T02:35:42;22.45;;;7.82;;
74892;SDS011;63446;56.272;43.922;2023-02-04T02:38:13;23.40;;;7.95;;
74892;SDS011;63446;56.272;43.922;2023-02-04T02:40:40;24.88;;;8.35;;
74892;SDS011;63446;56.272;43.922;2023-02-04T02:43:11;24.57;;;7.83;;
74892;SDS011;63446;56.272;43.922;2023-02-04T02:45:44;22.02;;;7.72;;
74892;SDS011;63446;56.272;43.922;2023-02-04T02:48:10;27.38;;;7.63;;
74892;SDS011;63446;56.272;43.922;2023-02-04T02:50:37;22.27;;;8.20;;
74892;SDS011;63446;56.272;43.922;2023-02-04T02:53:04;21.77;;;7.57;;
74892;SDS011;63446;56.272;43.922;2023-02-04T02:55:36;26.98;;;9.05;;
74892;SDS011;63446;56.272;43.922;2023-02-04T02:58:03;25.00;;;7.55;;
74892;SDS011;63446;56.272;43.922;2023-02-04T03:00:29;24.40;;;8.07;;
74892;SDS011;63446;56.272;43.922;2023-02-04T03:02:58;27.15;;;8.85;;
74892;SDS011;63446;56.272;43.922;2023-02-04T03:05:27;21.20;;;6.60;;
74892;SDS011;63446;56.272;43.922;2023-02-04T03:07:57;23.75;;;7.53;;
74892;SDS011;63446;56.272;43.922;2023-02-04T03:10:23;28.13;;;7.85;;
74892;SDS011;63446;56.272;43.922;2023-02-04T03:12:49;22.30;;;6.75;;
74892;SDS011;63446;56.272;43.922;2023-02-04T03:15:15;24.10;;;7.90;;
74892;SDS011;63446;56.272;43.922;2023-02-04T03:17:44;25.20;;;8.50;;
74892;SDS011;63446;56.272;43.922;2023-02-04T03:20:12;26.00;;;8.70;;
74892;SDS011;63446;56.272;43.922;2023-02-04T03:22:40;29.38;;;9.00;;
74892;SDS011;63446;56.272;43.922;2023-02-04T03:25:06;31.38;;;8.50;;
74892;SDS011;63446;56.272;43.922;2023-02-04T03:27:33;24.25;;;8.20;;
74892;SDS011;63446;56.272;43.922;2023-02-04T03:30:00;24.50;;;8.57;;
74892;SDS011;63446;56.272;43.922;2023-02-04T03:32:26;24.50;;;7.57;;
74892;SDS011;63446;56.272;43.922;2023-02-04T03:34:52;21.17;;;7.55;;
74892;SDS011;63446;56.272;43.922;2023-02-04T03:37:18;23.80;;;8.63;;
74892;SDS011;63446;56.272;43.922;2023-02-04T03:39:43;23.50;;;7.70;;
74892;SDS011;63446;56.272;43.922;2023-02-04T03:42:09;26.80;;;8.30;;
74892;SDS011;63446;56.272;43.922;2023-02-04T03:44:36;21.08;;;6.80;;
74892;SDS011;63446;56.272;43.922;2023-02-04T03:47:02;23.75;;;7.78;;
74892;SDS011;63446;56.272;43.922;2023-02-04T03:49:28;20.53;;;7.77;;
74892;SDS011;63446;56.272;43.922;2023-02-04T03:51:54;21.55;;;7.85;;
74892;SDS011;63446;56.272;43.922;2023-02-04T03:54:19;27.00;;;8.80;;
74892;SDS011;63446;56.272;43.922;2023-02-04T03:56:45;23.60;;;8.20;;
74892;SDS011;63446;56.272;43.922;2023-02-04T03:59:12;24.65;;;8.25;;
74892;SDS011;63446;56.272;43.922;2023-02-04T04:01:37;26.77;;;8.57;;
74892;SDS011;63446;56.272;43.922;2023-02-04T04:04:03;24.92;;;8.15;;
74892;SDS011;63446;56.272;43.922;2023-02-04T04:06:29;19.47;;;7.17;;
74892;SDS011;63446;56.272;43.922;2023-02-04T04:08:56;25.45;;;8.05;;
74892;SDS011;63446;56.272;43.922;2023-02-04T04:11:22;25.15;;;7.97;;
74892;SDS011;63446;56.272;43.922;2023-02-04T04:13:48;24.50;;;8.13;;
74892;SDS011;63446;56.272;43.922;2023-02-04T04:16:14;23.13;;;7.22;;
74892;SDS011;63446;56.272;43.922;2023-02-04T04:18:40;23.75;;;7.07;;
74892;SDS011;63446;56.272;43.922;2023-02-04T04:21:06;26.80;;;8.47;;
74892;SDS011;63446;56.272;43.922;2023-02-04T04:23:31;23.90;;;7.97;;
74892;SDS011;63446;56.272;43.922;2023-02-04T04:25:58;18.63;;;5.85;;
74892;SDS011;63446;56.272;43.922;2023-02-04T04:28:24;29.90;;;9.47;;
74892;SDS011;63446;56.272;43.922;2023-02-04T04:30:50;31.52;;;9.27;;
74892;SDS011;63446;56.272;43.922;2023-02-04T04:33:17;26.17;;;9.35;;
74892;SDS011;63446;56.272;43.922;2023-02-04T04:35:42;25.17;;;8.83;;
74892;SDS011;63446;56.272;43.922;2023-02-04T04:38:09;31.15;;;9.75;;
74892;SDS011;63446;56.272;43.922;2023-02-04T04:40:35;20.40;;;6.60;;
74892;SDS011;63446;56.272;43.922;2023-02-04T04:43:01;29.42;;;9.02;;
74892;SDS011;63446;56.272;43.922;2023-02-04T04:45:27;25.43;;;7.37;;
74892;SDS011;63446;56.272;43.922;2023-02-04T04:47:53;29.73;;;9.27;;
74892;SDS011;63446;56.272;43.922;2023-02-04T04:50:20;27.08;;;8.98;;
74892;SDS011;63446;56.272;43.922;2023-02-04T04:52:46;22.65;;;7.85;;
74892;SDS011;63446;56.272;43.922;2023-02-04T04:55:12;32.93;;;9.57;;
74892;SDS011;63446;56.272;43.922;2023-02-04T04:57:38;32.97;;;9.77;;
74892;SDS011;63446;56.272;43.922;2023-02-04T05:00:05;27.98;;;9.10;;
74892;SDS011;63446;56.272;43.922;2023-02-04T05:02:31;32.53;;;9.60;;
74892;SDS011;63446;56.272;43.922;2023-02-04T05:04:57;33.42;;;10.80;;
74892;SDS011;63446;56.272;43.922;2023-02-04T05:07:24;33.75;;;10.23;;
74892;SDS011;63446;56.272;43.922;2023-02-04T05:09:49;35.63;;;10.93;;
74892;SDS011;63446;56.272;43.922;2023-02-04T05:12:15;33.35;;;9.35;;
74892;SDS011;63446;56.272;43.922;2023-02-04T05:14:42;32.33;;;10.30;;
74892;SDS011;63446;56.272;43.922;2023-02-04T05:17:08;25.35;;;7.70;;
74892;SDS011;63446;56.272;43.922;2023-02-04T05:19:34;31.95;;;9.85;;
74892;SDS011;63446;56.272;43.922;2023-02-04T05:22:00;36.07;;;11.37;;
74892;SDS011;63446;56.272;43.922;2023-02-04T05:24:26;37.33;;;10.35;;
74892;SDS011;63446;56.272;43.922;2023-02-04T05:26:52;38.53;;;11.18;;
74892;SDS011;63446;56.272;43.922;2023-02-04T05:29:18;35.73;;;11.13;;
74892;SDS011;63446;56.272;43.922;2023-02-04T05:31:44;36.00;;;10.70;;
74892;SDS011;63446;56.272;43.922;2023-02-04T05:34:10;42.42;;;11.68;;
74892;SDS011;63446;56.272;43.922;2023-02-04T05:36:36;38.17;;;12.30;;
74892;SDS011;63446;56.272;43.922;2023-02-04T05:39:02;40.95;;;12.45;;
74892;SDS011;63446;56.272;43.922;2023-02-04T05:41:28;39.97;;;11.07;;
74892;SDS011;63446;56.272;43.922;2023-02-04T05:43:54;36.90;;;12.18;;
74892;SDS011;63446;56.272;43.922;2023-02-04T05:46:20;39.20;;;12.35;;
74892;SDS011;63446;56.272;43.922;2023-02-04T05:48:45;30.37;;;8.80;;
74892;SDS011;63446;56.272;43.922;2023-02-04T05:51:11;36.88;;;11.02;;
74892;SDS011;63446;56.272;43.922;2023-02-04T05:53:37;35.57;;;11.30;;
74892;SDS011;63446;56.272;43.922;2023-02-04T05:56:03;36.38;;;10.57;;
74892;SDS011;63446;56.272;43.922;2023-02-04T05:58:29;38.58;;;12.35;;
74892;SDS011;63446;56.272;43.922;2023-02-04T06:00:59;39.17;;;12.00;;
74892;SDS011;63446;56.272;43.922;2023-02-04T06:03:26;33.28;;;9.77;;
74892;SDS011;63446;56.272;43.922;2023-02-04T06:05:52;32.03;;;11.20;;
74892;SDS011;63446;56.272;43.922;2023-02-04T06:08:18;38.17;;;12.77;;
74892;SDS011;63446;56.272;43.922;2023-02-04T06:10:44;29.13;;;9.13;;
74892;SDS011;63446;56.272;43.922;2023-02-04T06:13:10;27.00;;;8.88;;
74892;SDS011;63446;56.272;43.922;2023-02-04T06:15:35;39.22;;;12.45;;
74892;SDS011;63446;56.272;43.922;2023-02-04T06:18:01;34.10;;;10.40;;
74892;SDS011;63446;56.272;43.922;2023-02-04T06:20:27;42.30;;;11.87;;
74892;SDS011;63446;56.272;43.922;2023-02-04T06:22:54;35.47;;;11.25;;
74892;SDS011;63446;56.272;43.922;2023-02-04T06:25:20;38.47;;;12.18;;
74892;SDS011;63446;56.272;43.922;2023-02-04T06:27:47;39.73;;;12.90;;
74892;SDS011;63446;56.272;43.922;2023-02-04T06:30:14;39.53;;;12.40;;
74892;SDS011;63446;56.272;43.922;2023-02-04T06:32:40;34.20;;;10.55;;
74892;SDS011;63446;56.272;43.922;2023-02-04T06:35:07;44.45;;;13.25;;
74892;SDS011;63446;56.272;43.922;2023-02-04T06:37:34;38.17;;;12.30;;
74892;SDS011;63446;56.272;43.922;2023-02-04T06:40:00;37.73;;;12.00;;
74892;SDS011;63446;56.272;43.922;2023-02-04T06:42:29;42.55;;;12.50;;
74892;SDS011;63446;56.272;43.922;2023-02-04T06:44:55;43.85;;;14.30;;
74892;SDS011;63446;56.272;43.922;2023-02-04T06:47:21;42.22;;;13.68;;
74892;SDS011;63446;56.272;43.922;2023-02-04T06:49:47;38.77;;;12.83;;
74892;SDS011;63446;56.272;43.922;2023-02-04T06:52:13;43.08;;;12.80;;
74892;SDS011;63446;56.272;43.922;2023-02-04T06:54:39;32.33;;;10.93;;
74892;SDS011;63446;56.272;43.922;2023-02-04T06:57:04;41.40;;;12.60;;
74892;SDS011;63446;56.272;43.922;2023-02-04T06:59:35;39.38;;;12.43;;
74892;SDS011;63446;56.272;43.922;2023-02-04T07:02:02;38.63;;;13.13;;
74892;SDS011;63446;56.272;43.922;2023-02-04T07:04:30;43.55;;;15.57;;
74892;SDS011;63446;56.272;43.922;2023-02-04T07:06:56;64.50;;;22.42;;
74892;SDS011;63446;56.272;43.922;2023-02-04T07:09:22;50.17;;;17.45;;
74892;SDS011;63446;56.272;43.922;2023-02-04T07:11:48;45.33;;;15.10;;
74892;SDS011;63446;56.272;43.922;2023-02-04T07:14:13;46.45;;;15.98;;
74892;SDS011;63446;56.272;43.922;2023-02-04T07:16:39;41.83;;;14.33;;
74892;SDS011;63446;56.272;43.922;2023-02-04T07:19:05;44.90;;;15.32;;
74892;SDS011;63446;56.272;43.922;2023-02-04T07:21:31;43.00;;;14.80;;
74892;SDS011;63446;56.272;43.922;2023-02-04T07:23:57;43.53;;;13.45;;
74892;SDS011;63446;56.272;43.922;2023-02-04T07:26:23;39.23;;;13.87;;
74892;SDS011;63446;56.272;43.922;2023-02-04T07:28:50;41.85;;;14.10;;
74892;SDS011;63446;56.272;43.922;2023-02-04T07:31:17;42.38;;;13.50;;
74892;SDS011;63446;56.272;43.922;2023-02-04T07:33:43;43.33;;;14.25;;
74892;SDS011;63446;56.272;43.922;2023-02-04T07:36:08;37.00;;;13.13;;
74892;SDS011;63446;56.272;43.922;2023-02-04T07:38:34;37.05;;;12.13;;
74892;SDS011;63446;56.272;43.922;2023-02-04T07:41:00;40.80;;;13.93;;
74892;SDS011;63446;56.272;43.922;2023-02-04T07:43:25;45.83;;;14.75;;
74892;SDS011;63446;56.272;43.922;2023-02-04T07:45:51;41.70;;;15.23;;
74892;SDS011;63446;56.272;43.922;2023-02-04T07:48:17;37.05;;;12.32;;
74892;SDS011;63446;56.272;43.922;2023-02-04T07:50:43;37.77;;;12.90;;
74892;SDS011;63446;56.272;43.922;2023-02-04T07:53:09;44.97;;;12.70;;
74892;SDS011;63446;56.272;43.922;2023-02-04T07:55:36;40.15;;;13.10;;
74892;SDS011;63446;56.272;43.922;2023-02-04T07:58:02;46.27;;;14.20;;
74892;SDS011;63446;56.272;43.922;2023-02-04T08:00:28;48.63;;;14.52;;
74892;SDS011;63446;56.272;43.922;2023-02-04T08:02:54;45.00;;;14.88;;
74892;SDS011;63446;56.272;43.922;2023-02-04T08:05:19;44.93;;;14.23;;
74892;SDS011;63446;56.272;43.922;2023-02-04T08:07:45;39.58;;;12.35;;
74892;SDS011;63446;56.272;43.922;2023-02-04T08:10:11;49.53;;;15.32;;
74892;SDS011;63446;56.272;43.922;2023-02-04T08:12:37;38.50;;;13.40;;
74892;SDS011;63446;56.272;43.922;2023-02-04T08:15:03;34.15;;;11.43;;
74892;SDS011;63446;56.272;43.922;2023-02-04T08:17:32;37.42;;;12.32;;
74892;SDS011;63446;56.272;43.922;2023-02-04T08:19:57;44.53;;;13.00;;
74892;SDS011;63446;56.272;43.922;2023-02-04T08:22:23;44.20;;;13.20;;
74892;SDS011;63446;56.272;43.922;2023-02-04T08:24:49;40.58;;;14.20;;
74892;SDS011;63446;56.272;43.922;2023-02-04T08:27:15;42.00;;;13.20;;
74892;SDS011;63446;56.272;43.922;2023-02-04T08:29:41;39.45;;;13.98;;
74892;SDS011;63446;56.272;43.922;2023-02-04T08:32:07;34.30;;;12.50;;
74892;SDS011;63446;56.272;43.922;2023-02-04T08:34:34;39.03;;;13.05;;
74892;SDS011;63446;56.272;43.922;2023-02-04T08:37:00;39.90;;;13.90;;
74892;SDS011;63446;56.272;43.922;2023-02-04T08:39:26;37.50;;;13.07;;
74892;SDS011;63446;56.272;43.922;2023-02-04T08:41:52;38.30;;;13.65;;
74892;SDS011;63446;56.272;43.922;2023-02-04T08:44:18;48.60;;;15.63;;
74892;SDS011;63446;56.272;43.922;2023-02-04T08:46:44;47.10;;;16.27;;
74892;SDS011;63446;56.272;43.922;2023-02-04T08:49:09;48.65;;;17.52;;
74892;SDS011;63446;56.272;43.922;2023-02-04T08:51:35;44.13;;;16.17;;
74892;SDS011;63446;56.272;43.922;2023-02-04T08:54:01;43.60;;;14.65;;
74892;SDS011;63446;56.272;43.922;2023-02-04T08:56:26;44.15;;;15.57;;
74892;SDS011;63446;56.272;43.922;2023-02-04T08:58:52;45.80;;;15.00;;
74892;SDS011;63446;56.272;43.922;2023-02-04T09:01:19;44.75;;;15.35;;
74892;SDS011;63446;56.272;43.922;2023-02-04T09:03:44;40.13;;;13.57;;
74892;SDS011;63446;56.272;43.922;2023-02-04T09:06:11;42.22;;;14.77;;
74892;SDS011;63446;56.272;43.922;2023-02-04T09:08:37;48.47;;;16.37;;
74892;SDS011;63446;56.272;43.922;2023-02-04T09:11:02;46.78;;;14.80;;
74892;SDS011;63446;56.272;43.922;2023-02-04T09:13:29;42.03;;;15.20;;
74892;SDS011;63446;56.272;43.922;2023-02-04T09:15:55;47.80;;;16.50;;
74892;SDS011;63446;56.272;43.922;2023-02-04T09:18:21;51.73;;;18.93;;
74892;SDS011;63446;56.272;43.922;2023-02-04T09:20:50;37.92;;;14.38;;
74892;SDS011;63446;56.272;43.922;2023-02-04T09:23:17;41.50;;;13.73;;
74892;SDS011;63446;56.272;43.922;2023-02-04T09:25:43;37.90;;;13.30;;
74892;SDS011;63446;56.272;43.922;2023-02-04T09:28:10;37.67;;;13.45;;
74892;SDS011;63446;56.272;43.922;2023-02-04T09:30:37;36.28;;;12.68;;
74892;SDS011;63446;56.272;43.922;2023-02-04T09:33:04;36.75;;;12.68;;
74892;SDS011;63446;56.272;43.922;2023-02-04T09:35:31;38.20;;;14.10;;
74892;SDS011;63446;56.272;43.922;2023-02-04T09:37:56;41.47;;;14.27;;
74892;SDS011;63446;56.272;43.922;2023-02-04T09:40:22;47.95;;;17.33;;
74892;SDS011;63446;56.272;43.922;2023-02-04T09:42:51;39.65;;;13.13;;
74892;SDS011;63446;56.272;43.922;2023-02-04T09:45:23;38.97;;;12.77;;
74892;SDS011;63446;56.272;43.922;2023-02-04T09:47:55;34.87;;;12.03;;
74892;SDS011;63446;56.272;43.922;2023-02-04T09:50:23;42.38;;;15.30;;
74892;SDS011;63446;56.272;43.922;2023-02-04T09:52:52;36.67;;;13.48;;
74892;SDS011;63446;56.272;43.922;2023-02-04T09:55:28;39.50;;;13.77;;
74892;SDS011;63446;56.272;43.922;2023-02-04T09:57:58;39.88;;;13.68;;
74892;SDS011;63446;56.272;43.922;2023-02-04T10:00:25;36.67;;;13.03;;
74892;SDS011;63446;56.272;43.922;2023-02-04T10:02:54;37.25;;;12.15;;
74892;SDS011;63446;56.272;43.922;2023-02-04T10:05:26;40.45;;;11.73;;
74892;SDS011;63446;56.272;43.922;2023-02-04T10:07:54;38.50;;;13.48;;
74892;SDS011;63446;56.272;43.922;2023-02-04T10:10:21;42.73;;;14.10;;
74892;SDS011;63446;56.272;43.922;2023-02-04T10:12:54;41.00;;;12.73;;
74892;SDS011;63446;56.272;43.922;2023-02-04T10:15:24;40.38;;;14.02;;
74892;SDS011;63446;56.272;43.922;2023-02-04T10:17:51;38.28;;;12.90;;
74892;SDS011;63446;56.272;43.922;2023-02-04T10:20:21;39.50;;;13.98;;
74892;SDS011;63446;56.272;43.922;2023-02-04T10:22:50;38.87;;;14.03;;
74892;SDS011;63446;56.272;43.922;2023-02-04T10:25:19;41.88;;;14.30;;
74892;SDS011;63446;56.272;43.922;2023-02-04T10:30:23;36.35;;;12.70;;
74892;SDS011;63446;56.272;43.922;2023-02-04T10:32:50;41.72;;;13.73;;
74892;SDS011;63446;56.272;43.922;2023-02-04T10:35:17;38.40;;;13.37;;
74892;SDS011;63446;56.272;43.922;2023-02-04T10:37:46;36.17;;;13.50;;
74892;SDS011;63446;56.272;43.922;2023-02-04T10:40:31;34.55;;;12.27;;
74892;SDS011;63446;56.272;43.922;2023-02-04T10:43:12;41.60;;;13.63;;
74892;SDS011;63446;56.272;43.922;2023-02-04T10:46:23;40.35;;;13.25;;
74892;SDS011;63446;56.272;43.922;2023-02-04T10:48:37;43.23;;;14.93;;
74892;SDS011;63446;56.272;43.922;2023-02-04T10:51:04;44.60;;;15.35;;
74892;SDS011;63446;56.272;43.922;2023-02-04T10:53:30;35.40;;;11.63;;
74892;SDS011;63446;56.272;43.922;2023-02-04T10:56:18;46.13;;;14.23;;
74892;SDS011;63446;56.272;43.922;2023-02-04T10:58:46;40.83;;;14.30;;
74892;SDS011;63446;56.272;43.922;2023-02-04T11:01:13;46.83;;;14.93;;
74892;SDS011;63446;56.272;43.922;2023-02-04T11:03:40;38.38;;;13.63;;
74892;SDS011;63446;56.272;43.922;2023-02-04T11:06:28;44.78;;;13.63;;
74892;SDS011;63446;56.272;43.922;2023-02-04T11:08:54;35.53;;;12.13;;
74892;SDS011;63446;56.272;43.922;2023-02-04T11:11:24;38.17;;;13.02;;
74892;SDS011;63446;56.272;43.922;2023-02-04T11:18:48;38.85;;;13.57;;
74892;SDS011;63446;56.272;43.922;2023-02-04T11:26:32;37.22;;;12.50;;
74892;SDS011;63446;56.272;43.922;2023-02-04T11:39:39;33.10;;;10.85;;
74892;SDS011;63446;56.272;43.922;2023-02-04T11:42:15;27.43;;;10.23;;
74892;SDS011;63446;56.272;43.922;2023-02-04T11:44:49;30.20;;;9.55;;
74892;SDS011;63446;56.272;43.922;2023-02-04T11:47:21;29.92;;;10.27;;
74892;SDS011;63446;56.272;43.922;2023-02-04T11:49:53;66.57;;;29.30;;
74892;SDS011;63446;56.272;43.922;2023-02-04T11:52:23;33.97;;;11.60;;
74892;SDS011;63446;56.272;43.922;2023-02-04T11:54:53;34.67;;;11.93;;
74892;SDS011;63446;56.272;43.922;2023-02-04T11:57:20;39.83;;;12.20;;
74892;SDS011;63446;56.272;43.922;2023-02-04T11:59:46;27.40;;;9.45;;
74892;SDS011;63446;56.272;43.922;2023-02-04T12:02:14;28.77;;;9.50;;
74892;SDS011;63446;56.272;43.922;2023-02-04T12:04:55;28.48;;;10.27;;
74892;SDS011;63446;56.272;43.922;2023-02-04T12:07:24;26.95;;;9.25;;
74892;SDS011;63446;56.272;43.922;2023-02-04T12:09:53;27.98;;;7.78;;
74892;SDS011;63446;56.272;43.922;2023-02-04T12:12:29;35.30;;;10.73;;
74892;SDS011;63446;56.272;43.922;2023-02-04T12:15:20;30.67;;;10.75;;
74892;SDS011;63446;56.272;43.922;2023-02-04T12:17:59;33.80;;;10.35;;
74892;SDS011;63446;56.272;43.922;2023-02-04T12:20:27;34.42;;;11.10;;
74892;SDS011;63446;56.272;43.922;2023-02-04T12:22:52;36.50;;;10.43;;
74892;SDS011;63446;56.272;43.922;2023-02-04T12:25:19;36.65;;;11.25;;
74892;SDS011;63446;56.272;43.922;2023-02-04T12:27:44;32.38;;;11.52;;
74892;SDS011;63446;56.272;43.922;2023-02-04T12:30:10;29.80;;;10.23;;
74892;SDS011;63446;56.272;43.922;2023-02-04T12:32:37;38.47;;;11.57;;
74892;SDS011;63446;56.272;43.922;2023-02-04T12:35:03;32.60;;;9.47;;
74892;SDS011;63446;56.272;43.922;2023-02-04T12:37:30;30.90;;;9.93;;
74892;SDS011;63446;56.272;43.922;2023-02-04T12:39:57;35.38;;;11.43;;
74892;SDS011;63446;56.272;43.922;2023-02-04T12:42:22;30.03;;;10.33;;
74892;SDS011;63446;56.272;43.922;2023-02-04T12:44:48;40.28;;;11.32;;
74892;SDS011;63446;56.272;43.922;2023-02-04T12:47:13;32.97;;;10.50;;
74892;SDS011;63446;56.272;43.922;2023-02-04T12:49:40;30.00;;;9.85;;
74892;SDS011;63446;56.272;43.922;2023-02-04T12:52:06;37.27;;;10.97;;
74892;SDS011;63446;56.272;43.922;2023-02-04T12:54:32;27.58;;;9.50;;
74892;SDS011;63446;56.272;43.922;2023-02-04T12:56:58;34.03;;;11.02;;
74892;SDS011;63446;56.272;43.922;2023-02-04T12:59:24;31.77;;;11.00;;
74892;SDS011;63446;56.272;43.922;2023-02-04T13:01:50;30.45;;;9.07;;
74892;SDS011;63446;56.272;43.922;2023-02-04T13:04:16;34.95;;;11.57;;
74892;SDS011;63446;56.272;43.922;2023-02-04T13:06:41;36.03;;;10.83;;
74892;SDS011;63446;56.272;43.922;2023-02-04T13:09:07;34.50;;;11.30;;
74892;SDS011;63446;56.272;43.922;2023-02-04T13:11:33;29.88;;;10.00;;
74892;SDS011;63446;56.272;43.922;2023-02-04T13:13:59;35.83;;;11.60;;
74892;SDS011;63446;56.272;43.922;2023-02-04T13:16:24;40.38;;;12.52;;
74892;SDS011;63446;56.272;43.922;2023-02-04T13:18:51;35.88;;;13.00;;
74892;SDS011;63446;56.272;43.922;2023-02-04T13:21:18;38.58;;;12.80;;
74892;SDS011;63446;56.272;43.922;2023-02-04T13:23:45;58.95;;;16.50;;
74892;SDS011;63446;56.272;43.922;2023-02-04T13:26:11;85.00;;;19.00;;
74892;SDS011;63446;56.272;43.922;2023-02-04T13:28:36;55.73;;;15.40;;
74892;SDS011;63446;56.272;43.922;2023-02-04T13:31:03;75.97;;;20.13;;
74892;SDS011;63446;56.272;43.922;2023-02-04T13:33:29;34.92;;;11.43;;
74892;SDS011;63446;56.272;43.922;2023-02-04T13:35:55;33.87;;;10.40;;
74892;SDS011;63446;56.272;43.922;2023-02-04T13:38:22;29.77;;;11.20;;
74892;SDS011;63446;56.272;43.922;2023-02-04T13:40:47;35.77;;;12.20;;
74892;SDS011;63446;56.272;43.922;2023-02-04T13:43:14;36.83;;;12.73;;
74892;SDS011;63446;56.272;43.922;2023-02-04T13:45:39;38.87;;;13.70;;
74892;SDS011;63446;56.272;43.922;2023-02-04T13:48:12;33.67;;;10.60;;
74892;SDS011;63446;56.272;43.922;2023-02-04T13:50:39;39.25;;;10.73;;
74892;SDS011;63446;56.272;43.922;2023-02-04T13:53:04;35.83;;;11.45;;
74892;SDS011;63446;56.272;43.922;2023-02-04T13:55:30;38.77;;;11.50;;
74892;SDS011;63446;56.272;43.922;2023-02-04T13:57:56;34.67;;;12.00;;
74892;SDS011;63446;56.272;43.922;2023-02-04T14:00:21;31.95;;;11.13;;
74892;SDS011;63446;56.272;43.922;2023-02-04T14:02:47;34.90;;;10.50;;
74892;SDS011;63446;56.272;43.922;2023-02-04T14:05:13;33.35;;;11.52;;
74892;SDS011;63446;56.272;43.922;2023-02-04T14:07:39;34.67;;;10.88;;
74892;SDS011;63446;56.272;43.922;2023-02-04T14:10:05;36.03;;;11.90;;
74892;SDS011;63446;56.272;43.922;2023-02-04T14:12:31;39.75;;;12.25;;
74892;SDS011;63446;56.272;43.922;2023-02-04T14:14:57;35.30;;;12.05;;
74892;SDS011;63446;56.272;43.922;2023-02-04T14:17:24;32.67;;;10.67;;
74892;SDS011;63446;56.272;43.922;2023-02-04T14:19:50;36.63;;;10.45;;
74892;SDS011;63446;56.272;43.922;2023-02-04T14:22:16;36.65;;;11.10;;
74892;SDS011;63446;56.272;43.922;2023-02-04T14:24:42;34.40;;;11.57;;
74892;SDS011;63446;56.272;43.922;2023-02-04T14:27:09;33.67;;;11.15;;
74892;SDS011;63446;56.272;43.922;2023-02-04T14:29:35;33.42;;;9.32;;
74892;SDS011;63446;56.272;43.922;2023-02-04T14:32:01;34.67;;;10.97;;
74892;SDS011;63446;56.272;43.922;2023-02-04T14:34:27;33.88;;;11.40;;
74892;SDS011;63446;56.272;43.922;2023-02-04T14:36:53;36.70;;;12.70;;